sensor_id;sensor_type;location;lat;lon;timestamp;pressure;altitude;pressure_sealevel;temperature;humidity
49583;BME280;36329;48.816;44.624;2023-04-23T00:00:10;100687;;;8.9;100
49583;BME280;36329;48.816;44.624;2023-04-23T00:03:13;100689;;;8.8;100
49583;BME280;36329;48.816;44.624;2023-04-23T00:06:16;100691;;;8.8;100
49583;BME280;36329;48.816;44.624;2023-04-23T00:09:18;100686;;;8.8;100
49583;BME280;36329;48.816;44.624;2023-04-23T00:12:23;100691;;;8.9;100
49583;BME280;36329;48.816;44.624;2023-04-23T00:15:26;100689;;;8.9;100
49583;BME280;36329;48.816;44.624;2023-04-23T00:18:29;100694;;;8.9;100
49583;BME280;36329;48.816;44.624;2023-04-23T00:21:31;100695;;;8.9;100
49583;BME280;36329;48.816;44.624;2023-04-23T00:24:33;100699;;;8.9;100
49583;BME280;36329;48.816;44.624;2023-04-23T00:27:36;100701;;;8.8;100
49583;BME280;36329;48.816;44.624;2023-04-23T00:30:38;100701;;;8.8;100
49583;BME280;36329;48.816;44.624;2023-04-23T00:33:40;100702;;;8.9;100
49583;BME280;36329;48.816;44.624;2023-04-23T00:36:43;100709;;;9;100
49583;BME280;36329;48.816;44.624;2023-04-23T00:39:45;100715;;;9.1;100
49583;BME280;36329;48.816;44.624;2023-04-23T00:42:49;100721;;;9;100
49583;BME280;36329;48.816;44.624;2023-04-23T00:45:51;100727;;;8.9;100
49583;BME280;36329;48.816;44.624;2023-04-23T00:48:57;100729;;;8.9;100
49583;BME280;36329;48.816;44.624;2023-04-23T00:52:01;100730;;;8.7;100
49583;BME280;36329;48.816;44.624;2023-04-23T00:55:03;100735;;;8.6;100
49583;BME280;36329;48.816;44.624;2023-04-23T00:58:06;100738;;;8.6;100
49583;BME280;36329;48.816;44.624;2023-04-23T01:01:10;100739;;;8.7;100
49583;BME280;36329;48.816;44.624;2023-04-23T01:04:13;100746;;;8.7;100
49583;BME280;36329;48.816;44.624;2023-04-23T01:07:17;100748;;;8.6;100
49583;BME280;36329;48.816;44.624;2023-04-23T01:10:19;100748;;;8.7;100
49583;BME280;36329;48.816;44.624;2023-04-23T01:13:22;100754;;;8.6;100
49583;BME280;36329;48.816;44.624;2023-04-23T01:16:25;100753;;;8.7;100
49583;BME280;36329;48.816;44.624;2023-04-23T01:19:27;100758;;;8.7;100
49583;BME280;36329;48.816;44.624;2023-04-23T01:22:29;100758;;;8.7;100
49583;BME280;36329;48.816;44.624;2023-04-23T01:25:31;100769;;;8.6;100
49583;BME280;36329;48.816;44.624;2023-04-23T01:28:34;100774;;;8.6;100
49583;BME280;36329;48.816;44.624;2023-04-23T01:31:37;100774;;;8.6;100
49583;BME280;36329;48.816;44.624;2023-04-23T01:34:39;100775;;;8.6;100
49583;BME280;36329;48.816;44.624;2023-04-23T01:37:43;100776;;;8.7;100
49583;BME280;36329;48.816;44.624;2023-04-23T01:40:45;100784;;;8.6;100
49583;BME280;36329;48.816;44.624;2023-04-23T01:43:48;100784;;;8.3;100
49583;BME280;36329;48.816;44.624;2023-04-23T01:46:50;100783;;;8.1;100
49583;BME280;36329;48.816;44.624;2023-04-23T01:49:55;100785;;;8.3;100
49583;BME280;36329;48.816;44.624;2023-04-23T01:52:58;100786;;;8.4;100
49583;BME280;36329;48.816;44.624;2023-04-23T01:56:01;100792;;;8.4;100
49583;BME280;36329;48.816;44.624;2023-04-23T01:59:07;100792;;;8.6;100
49583;BME280;36329;48.816;44.624;2023-04-23T02:02:10;100792;;;8.7;100
49583;BME280;36329;48.816;44.624;2023-04-23T02:05:14;100795;;;8.8;100
49583;BME280;36329;48.816;44.624;2023-04-23T02:08:17;100791;;;8.7;100
49583;BME280;36329;48.816;44.624;2023-04-23T02:11:20;100797;;;8.8;100
49583;BME280;36329;48.816;44.624;2023-04-23T02:14:23;100797;;;8.7;100
49583;BME280;36329;48.816;44.624;2023-04-23T02:17:27;100804;;;8.7;100
49583;BME280;36329;48.816;44.624;2023-04-23T02:20:29;100810;;;8.7;100
49583;BME280;36329;48.816;44.624;2023-04-23T02:23:31;100812;;;8.6;100
49583;BME280;36329;48.816;44.624;2023-04-23T02:26:34;100812;;;8.6;100
49583;BME280;36329;48.816;44.624;2023-04-23T02:29:37;100813;;;8.5;100
49583;BME280;36329;48.816;44.624;2023-04-23T02:32:39;100812;;;8.6;100
49583;BME280;36329;48.816;44.624;2023-04-23T02:35:41;100811;;;8.6;100
49583;BME280;36329;48.816;44.624;2023-04-23T02:38:44;100812;;;8.6;100
49583;BME280;36329;48.816;44.624;2023-04-23T02:41:46;100811;;;8.6;100
49583;BME280;36329;48.816;44.624;2023-04-23T02:44:48;100814;;;8.7;100
49583;BME280;36329;48.816;44.624;2023-04-23T02:47:51;100822;;;8.7;100
49583;BME280;36329;48.816;44.624;2023-04-23T02:50:55;100832;;;8.8;100
49583;BME280;36329;48.816;44.624;2023-04-23T02:53:57;100831;;;8.9;100
49583;BME280;36329;48.816;44.624;2023-04-23T02:56:59;100832;;;9;100
49583;BME280;36329;48.816;44.624;2023-04-23T03:00:02;100834;;;9;100
49583;BME280;36329;48.816;44.624;2023-04-23T03:03:09;100840;;;9;100
49583;BME280;36329;48.816;44.624;2023-04-23T03:06:12;100851;;;8.9;100
49583;BME280;36329;48.816;44.624;2023-04-23T03:09:14;100855;;;8.9;100
49583;BME280;36329;48.816;44.624;2023-04-23T03:12:16;100860;;;8.9;100
49583;BME280;36329;48.816;44.624;2023-04-23T03:15:19;100860;;;8.9;100
49583;BME280;36329;48.816;44.624;2023-04-23T03:18:21;100868;;;9;100
49583;BME280;36329;48.816;44.624;2023-04-23T03:21:24;100877;;;8.9;100
49583;BME280;36329;48.816;44.624;2023-04-23T03:24:26;100882;;;9;100
49583;BME280;36329;48.816;44.624;2023-04-23T03:27:28;100881;;;9;100
49583;BME280;36329;48.816;44.624;2023-04-23T03:30:31;100883;;;8.9;100
49583;BME280;36329;48.816;44.624;2023-04-23T03:33:33;100887;;;9.1;100
49583;BME280;36329;48.816;44.624;2023-04-23T03:36:36;100899;;;9.2;100
49583;BME280;36329;48.816;44.624;2023-04-23T03:39:38;100894;;;9.4;100
49583;BME280;36329;48.816;44.624;2023-04-23T03:42:40;100889;;;9.4;100
49583;BME280;36329;48.816;44.624;2023-04-23T03:45:44;100892;;;9.4;100
49583;BME280;36329;48.816;44.624;2023-04-23T03:48:46;100897;;;9.6;100
49583;BME280;36329;48.816;44.624;2023-04-23T03:51:48;100901;;;9.8;100
49583;BME280;36329;48.816;44.624;2023-04-23T03:54:51;100905;;;9.9;100
49583;BME280;36329;48.816;44.624;2023-04-23T03:57:53;100913;;;9.9;100
49583;BME280;36329;48.816;44.624;2023-04-23T04:00:55;100922;;;10;100
49583;BME280;36329;48.816;44.624;2023-04-23T04:03:58;100922;;;10.3;100
49583;BME280;36329;48.816;44.624;2023-04-23T04:07:01;100924;;;10.4;100
49583;BME280;36329;48.816;44.624;2023-04-23T04:10:04;100931;;;10.7;100
49583;BME280;36329;48.816;44.624;2023-04-23T04:13:06;100935;;;10.8;100
49583;BME280;36329;48.816;44.624;2023-04-23T04:16:08;100940;;;10.9;100
49583;BME280;36329;48.816;44.624;2023-04-23T04:19:10;100943;;;10.8;100
49583;BME280;36329;48.816;44.624;2023-04-23T04:22:13;100944;;;11;100
49583;BME280;36329;48.816;44.624;2023-04-23T04:25:16;100957;;;11.3;100
49583;BME280;36329;48.816;44.624;2023-04-23T04:28:18;100963;;;11.7;99.8
49583;BME280;36329;48.816;44.624;2023-04-23T04:31:21;100956;;;11.8;100
49583;BME280;36329;48.816;44.624;2023-04-23T04:34:24;100952;;;11.9;99.6
49583;BME280;36329;48.816;44.624;2023-04-23T04:37:26;100953;;;12.1;99.4
49583;BME280;36329;48.816;44.624;2023-04-23T04:40:28;100963;;;12.2;100
49583;BME280;36329;48.816;44.624;2023-04-23T04:43:30;100963;;;12.3;97.5
49583;BME280;36329;48.816;44.624;2023-04-23T04:46:32;100962;;;12.3;99.1
49583;BME280;36329;48.816;44.624;2023-04-23T04:49:34;100975;;;12.3;98.1
49583;BME280;36329;48.816;44.624;2023-04-23T04:52:36;100979;;;11.7;97.8
49583;BME280;36329;48.816;44.624;2023-04-23T04:55:40;100984;;;10.7;100
49583;BME280;36329;48.816;44.624;2023-04-23T04:58:42;100986;;;10.9;100
49583;BME280;36329;48.816;44.624;2023-04-23T05:01:45;100985;;;11.2;100
49583;BME280;36329;48.816;44.624;2023-04-23T05:04:48;100984;;;11;100
49583;BME280;36329;48.816;44.624;2023-04-23T05:07:51;100982;;;11.3;100
49583;BME280;36329;48.816;44.624;2023-04-23T05:10:53;100989;;;11.3;100
49583;BME280;36329;48.816;44.624;2023-04-23T05:13:55;100992;;;11.6;100
49583;BME280;36329;48.816;44.624;2023-04-23T05:16:58;100991;;;11.8;100
49583;BME280;36329;48.816;44.624;2023-04-23T05:20:00;100993;;;12;99.9
49583;BME280;36329;48.816;44.624;2023-04-23T05:23:03;101000;;;12.3;97.5
49583;BME280;36329;48.816;44.624;2023-04-23T05:26:05;101007;;;12.2;98
49583;BME280;36329;48.816;44.624;2023-04-23T05:29:07;101009;;;12.2;98.7
49583;BME280;36329;48.816;44.624;2023-04-23T05:32:09;101013;;;12.3;98.2
49583;BME280;36329;48.816;44.624;2023-04-23T05:35:12;101014;;;12.3;98.5
49583;BME280;36329;48.816;44.624;2023-04-23T05:38:14;101013;;;12.9;97.1
49583;BME280;36329;48.816;44.624;2023-04-23T05:41:16;101013;;;13.1;94.8
49583;BME280;36329;48.816;44.624;2023-04-23T05:44:19;101027;;;13.6;93
49583;BME280;36329;48.816;44.624;2023-04-23T05:47:21;101027;;;13.7;90.9
49583;BME280;36329;48.816;44.624;2023-04-23T05:50:23;101035;;;14.3;89.2
49583;BME280;36329;48.816;44.624;2023-04-23T05:53:26;101040;;;14.1;88.9
49583;BME280;36329;48.816;44.624;2023-04-23T05:56:28;101039;;;14.4;88.5
49583;BME280;36329;48.816;44.624;2023-04-23T05:59:33;101042;;;14.5;86.7
49583;BME280;36329;48.816;44.624;2023-04-23T06:02:35;101041;;;15.1;85.4
49583;BME280;36329;48.816;44.624;2023-04-23T06:05:37;101037;;;15.2;83.3
49583;BME280;36329;48.816;44.624;2023-04-23T06:08:40;101044;;;14.9;82.6
49583;BME280;36329;48.816;44.624;2023-04-23T06:11:42;101044;;;14.7;86
49583;BME280;36329;48.816;44.624;2023-04-23T06:14:44;101044;;;14.9;84.6
49583;BME280;36329;48.816;44.624;2023-04-23T06:17:46;101058;;;14.9;83.2
49583;BME280;36329;48.816;44.624;2023-04-23T06:20:48;101054;;;14.4;86.5
49583;BME280;36329;48.816;44.624;2023-04-23T06:23:50;101064;;;14.1;87.1
49583;BME280;36329;48.816;44.624;2023-04-23T06:26:53;101057;;;14.7;86.3
49583;BME280;36329;48.816;44.624;2023-04-23T06:29:55;101067;;;14.5;85.9
49583;BME280;36329;48.816;44.624;2023-04-23T06:32:57;101064;;;14.2;86.7
49583;BME280;36329;48.816;44.624;2023-04-23T06:35:59;101071;;;14.7;83.5
49583;BME280;36329;48.816;44.624;2023-04-23T06:39:01;101070;;;15;84
49583;BME280;36329;48.816;44.624;2023-04-23T06:42:04;101073;;;14.5;85.8
49583;BME280;36329;48.816;44.624;2023-04-23T06:45:06;101077;;;14.1;88.1
49583;BME280;36329;48.816;44.624;2023-04-23T06:48:08;101077;;;14.2;88.6
49583;BME280;36329;48.816;44.624;2023-04-23T06:51:10;101080;;;14.4;88.7
49583;BME280;36329;48.816;44.624;2023-04-23T06:54:12;101090;;;14.7;87
49583;BME280;36329;48.816;44.624;2023-04-23T06:57:14;101071;;;15.4;84.7
49583;BME280;36329;48.816;44.624;2023-04-23T07:00:16;101077;;;15.9;81.7
49583;BME280;36329;48.816;44.624;2023-04-23T07:03:20;101087;;;16.4;80.1
49583;BME280;36329;48.816;44.624;2023-04-23T07:06:22;101080;;;16.3;77.6
49583;BME280;36329;48.816;44.624;2023-04-23T07:09:25;101080;;;15.6;78.4
49583;BME280;36329;48.816;44.624;2023-04-23T07:12:27;101085;;;15.6;79.6
49583;BME280;36329;48.816;44.624;2023-04-23T07:15:30;101093;;;15.6;79.5
49583;BME280;36329;48.816;44.624;2023-04-23T07:18:32;101098;;;15.8;77.8
49583;BME280;36329;48.816;44.624;2023-04-23T07:21:34;101096;;;16.4;75.8
49583;BME280;36329;48.816;44.624;2023-04-23T07:24:36;101092;;;16.7;73.2
49583;BME280;36329;48.816;44.624;2023-04-23T07:27:38;101107;;;16.3;76.8
49583;BME280;36329;48.816;44.624;2023-04-23T07:30:40;101100;;;15.6;79.8
49583;BME280;36329;48.816;44.624;2023-04-23T07:33:42;101103;;;15.2;83.8
49583;BME280;36329;48.816;44.624;2023-04-23T07:36:44;101103;;;14.9;84.9
49583;BME280;36329;48.816;44.624;2023-04-23T07:39:46;101098;;;15.3;85
49583;BME280;36329;48.816;44.624;2023-04-23T07:42:50;101097;;;15.8;81.2
49583;BME280;36329;48.816;44.624;2023-04-23T07:45:52;101102;;;16.3;78.5
49583;BME280;36329;48.816;44.624;2023-04-23T07:48:54;101098;;;15.7;79.8
49583;BME280;36329;48.816;44.624;2023-04-23T07:51:56;101104;;;15.1;83
49583;BME280;36329;48.816;44.624;2023-04-23T07:54:59;101101;;;15;83.7
49583;BME280;36329;48.816;44.624;2023-04-23T07:58:01;101096;;;15;84.2
49583;BME280;36329;48.816;44.624;2023-04-23T08:01:03;101093;;;15.3;83.2
49583;BME280;36329;48.816;44.624;2023-04-23T08:04:05;101101;;;15.3;82.6
49583;BME280;36329;48.816;44.624;2023-04-23T08:07:09;101097;;;15.4;83.3
49583;BME280;36329;48.816;44.624;2023-04-23T08:10:12;101096;;;15.4;83.3
49583;BME280;36329;48.816;44.624;2023-04-23T08:13:14;101099;;;15.3;82
49583;BME280;36329;48.816;44.624;2023-04-23T08:16:16;101109;;;15.1;81.7
49583;BME280;36329;48.816;44.624;2023-04-23T08:19:18;101102;;;15;82.2
49583;BME280;36329;48.816;44.624;2023-04-23T08:22:20;101111;;;15.1;79.5
49583;BME280;36329;48.816;44.624;2023-04-23T08:25:22;101110;;;15.1;80.4
49583;BME280;36329;48.816;44.624;2023-04-23T08:28:25;101099;;;15.3;80.7
49583;BME280;36329;48.816;44.624;2023-04-23T08:31:27;101103;;;15.7;78.4
49583;BME280;36329;48.816;44.624;2023-04-23T08:34:29;101105;;;16;77.2
49583;BME280;36329;48.816;44.624;2023-04-23T08:37:31;101098;;;16.5;75.7
49583;BME280;36329;48.816;44.624;2023-04-23T08:40:35;101101;;;16.1;77
49583;BME280;36329;48.816;44.624;2023-04-23T08:43:46;101107;;;15.5;78.4
49583;BME280;36329;48.816;44.624;2023-04-23T08:46:53;101108;;;15.2;81.1
49583;BME280;36329;48.816;44.624;2023-04-23T08:49:58;101109;;;14.9;82.9
49583;BME280;36329;48.816;44.624;2023-04-23T08:53:00;101106;;;14.9;83.8
49583;BME280;36329;48.816;44.624;2023-04-23T08:56:05;101114;;;14.8;84
49583;BME280;36329;48.816;44.624;2023-04-23T08:59:07;101115;;;14.6;84.9
49583;BME280;36329;48.816;44.624;2023-04-23T09:02:09;101111;;;14.9;84.6
49583;BME280;36329;48.816;44.624;2023-04-23T09:05:12;101101;;;15;82.8
49583;BME280;36329;48.816;44.624;2023-04-23T09:08:14;101099;;;15.4;81.7
49583;BME280;36329;48.816;44.624;2023-04-23T09:11:17;101104;;;15.4;80.2
49583;BME280;36329;48.816;44.624;2023-04-23T09:14:21;101109;;;15.5;81.9
49583;BME280;36329;48.816;44.624;2023-04-23T09:17:28;101106;;;16.5;77
49583;BME280;36329;48.816;44.624;2023-04-23T09:20:30;101103;;;18.1;68.9
49583;BME280;36329;48.816;44.624;2023-04-23T09:23:32;101105;;;18.5;65.5
49583;BME280;36329;48.816;44.624;2023-04-23T09:26:42;101108;;;18.3;64.3
49583;BME280;36329;48.816;44.624;2023-04-23T09:29:45;101106;;;18;61.6
49583;BME280;36329;48.816;44.624;2023-04-23T09:32:47;101107;;;18;60.4
49583;BME280;36329;48.816;44.624;2023-04-23T09:35:49;101106;;;17.8;59.1
49583;BME280;36329;48.816;44.624;2023-04-23T09:38:55;101099;;;18.5;59.2
49583;BME280;36329;48.816;44.624;2023-04-23T09:42:02;101100;;;18.5;58.2
49583;BME280;36329;48.816;44.624;2023-04-23T09:45:07;101100;;;18.5;55.8
49583;BME280;36329;48.816;44.624;2023-04-23T09:48:09;101099;;;18.6;54
49583;BME280;36329;48.816;44.624;2023-04-23T09:51:13;101106;;;19;52.6
49583;BME280;36329;48.816;44.624;2023-04-23T09:54:16;101102;;;18.5;54.1
49583;BME280;36329;48.816;44.624;2023-04-23T09:57:18;101095;;;18.5;53.9
49583;BME280;36329;48.816;44.624;2023-04-23T10:00:20;101105;;;18.3;54.3
49583;BME280;36329;48.816;44.624;2023-04-23T10:03:26;101093;;;17.4;55.8
49583;BME280;36329;48.816;44.624;2023-04-23T10:06:28;101103;;;17.1;57
49583;BME280;36329;48.816;44.624;2023-04-23T10:09:30;101093;;;17.5;56.6
49583;BME280;36329;48.816;44.624;2023-04-23T10:12:33;101097;;;17.7;55.2
49583;BME280;36329;48.816;44.624;2023-04-23T10:15:35;101101;;;17.6;55.8
49583;BME280;36329;48.816;44.624;2023-04-23T10:18:38;101095;;;17.2;56.6
49583;BME280;36329;48.816;44.624;2023-04-23T10:21:40;101102;;;16.8;57.9
49583;BME280;36329;48.816;44.624;2023-04-23T10:24:44;101098;;;16.7;58.9
49583;BME280;36329;48.816;44.624;2023-04-23T10:27:48;101097;;;16.4;58.7
49583;BME280;36329;48.816;44.624;2023-04-23T10:30:52;101099;;;16.3;60.1
49583;BME280;36329;48.816;44.624;2023-04-23T10:33:55;101099;;;16.4;59.5
49583;BME280;36329;48.816;44.624;2023-04-23T10:36:59;101110;;;16;60.7
49583;BME280;36329;48.816;44.624;2023-04-23T10:40:05;101120;;;16;60.4
49583;BME280;36329;48.816;44.624;2023-04-23T10:43:08;101110;;;16;61.6
49583;BME280;36329;48.816;44.624;2023-04-23T10:46:27;101113;;;16.9;60
49583;BME280;36329;48.816;44.624;2023-04-23T10:49:31;101113;;;17;59.9
49583;BME280;36329;48.816;44.624;2023-04-23T10:52:34;101112;;;17.5;59
49583;BME280;36329;48.816;44.624;2023-04-23T10:55:36;101117;;;17.5;57.7
49583;BME280;36329;48.816;44.624;2023-04-23T10:58:47;101118;;;17.3;55.6
49583;BME280;36329;48.816;44.624;2023-04-23T11:01:50;101120;;;17.8;56.7
49583;BME280;36329;48.816;44.624;2023-04-23T11:04:54;101114;;;18.2;55.1
49583;BME280;36329;48.816;44.624;2023-04-23T11:08:06;101116;;;17.7;55.4
49583;BME280;36329;48.816;44.624;2023-04-23T11:11:09;101121;;;18.2;55.8
49583;BME280;36329;48.816;44.624;2023-04-23T11:14:11;101111;;;18;54.4
49583;BME280;36329;48.816;44.624;2023-04-23T11:17:15;101112;;;17.1;56
49583;BME280;36329;48.816;44.624;2023-04-23T11:20:19;101106;;;17.4;57.3
49583;BME280;36329;48.816;44.624;2023-04-23T11:23:29;101106;;;17.5;57.6
49583;BME280;36329;48.816;44.624;2023-04-23T11:26:33;101103;;;17.6;57.3
49583;BME280;36329;48.816;44.624;2023-04-23T11:29:36;101095;;;17.4;57.9
49583;BME280;36329;48.816;44.624;2023-04-23T11:32:39;101100;;;17.5;57.6
49583;BME280;36329;48.816;44.624;2023-04-23T11:35:41;101104;;;17.3;57.8
49583;BME280;36329;48.816;44.624;2023-04-23T11:38:44;101104;;;17.1;58.2
49583;BME280;36329;48.816;44.624;2023-04-23T11:41:46;101106;;;17.1;59.5
49583;BME280;36329;48.816;44.624;2023-04-23T11:44:48;101106;;;17;60.8
49583;BME280;36329;48.816;44.624;2023-04-23T11:47:52;101112;;;16.9;59.8
49583;BME280;36329;48.816;44.624;2023-04-23T11:50:55;101105;;;16.7;57.7
49583;BME280;36329;48.816;44.624;2023-04-23T11:54:01;101104;;;16.9;55.9
49583;BME280;36329;48.816;44.624;2023-04-23T11:57:04;101103;;;17.1;55.8
49583;BME280;36329;48.816;44.624;2023-04-23T12:00:12;101115;;;16.7;54.5
49583;BME280;36329;48.816;44.624;2023-04-23T12:03:15;101108;;;16.6;55.4
49583;BME280;36329;48.816;44.624;2023-04-23T12:06:17;101103;;;16.9;54.7
49583;BME280;36329;48.816;44.624;2023-04-23T12:09:20;101103;;;17.3;53.8
49583;BME280;36329;48.816;44.624;2023-04-23T12:12:31;101105;;;17;52.6
49583;BME280;36329;48.816;44.624;2023-04-23T12:18:45;101106;;;16.8;53.5
49583;BME280;36329;48.816;44.624;2023-04-23T12:21:49;101107;;;17;52.6
49583;BME280;36329;48.816;44.624;2023-04-23T12:24:52;101104;;;17;53.1
49583;BME280;36329;48.816;44.624;2023-04-23T12:27:58;101108;;;17.1;53.7
49583;BME280;36329;48.816;44.624;2023-04-23T12:31:01;101105;;;17.1;54.5
49583;BME280;36329;48.816;44.624;2023-04-23T12:34:05;101113;;;17.3;54.2
49583;BME280;36329;48.816;44.624;2023-04-23T12:37:08;101108;;;17.1;53.2
49583;BME280;36329;48.816;44.624;2023-04-23T12:40:10;101115;;;17.2;53.9
49583;BME280;36329;48.816;44.624;2023-04-23T12:43:13;101116;;;16.8;55.3
49583;BME280;36329;48.816;44.624;2023-04-23T12:46:15;101117;;;16.6;55.5
49583;BME280;36329;48.816;44.624;2023-04-23T12:49:17;101121;;;16.4;56.1
49583;BME280;36329;48.816;44.624;2023-04-23T12:52:19;101120;;;16.4;55.6
49583;BME280;36329;48.816;44.624;2023-04-23T12:55:22;101121;;;16.2;54.7
49583;BME280;36329;48.816;44.624;2023-04-23T12:58:24;101124;;;16.5;55
49583;BME280;36329;48.816;44.624;2023-04-23T13:01:27;101126;;;16.9;55.9
49583;BME280;36329;48.816;44.624;2023-04-23T13:04:32;101126;;;17;55.4
49583;BME280;36329;48.816;44.624;2023-04-23T13:07:36;101126;;;16.8;55
49583;BME280;36329;48.816;44.624;2023-04-23T13:10:38;101130;;;16.6;52.8
49583;BME280;36329;48.816;44.624;2023-04-23T13:13:40;101133;;;16.4;54.6
49583;BME280;36329;48.816;44.624;2023-04-23T13:16:42;101136;;;16.4;54.2
49583;BME280;36329;48.816;44.624;2023-04-23T13:19:45;101136;;;16.5;54.2
49583;BME280;36329;48.816;44.624;2023-04-23T13:22:47;101138;;;16.4;54.4
49583;BME280;36329;48.816;44.624;2023-04-23T13:25:49;101136;;;16.5;54.5
49583;BME280;36329;48.816;44.624;2023-04-23T13:28:51;101139;;;16.6;54.7
49583;BME280;36329;48.816;44.624;2023-04-23T13:31:53;101145;;;16.6;54.4
49583;BME280;36329;48.816;44.624;2023-04-23T13:34:56;101146;;;16.7;55
49583;BME280;36329;48.816;44.624;2023-04-23T13:37:58;101148;;;16.7;54.8
49583;BME280;36329;48.816;44.624;2023-04-23T13:41:00;101150;;;16.8;54.1
49583;BME280;36329;48.816;44.624;2023-04-23T13:44:03;101149;;;16.7;55.5
49583;BME280;36329;48.816;44.624;2023-04-23T13:47:05;101150;;;16.7;55.9
49583;BME280;36329;48.816;44.624;2023-04-23T13:50:08;101154;;;16.5;54.8
49583;BME280;36329;48.816;44.624;2023-04-23T13:53:11;101155;;;16.5;54.7
49583;BME280;36329;48.816;44.624;2023-04-23T13:56:13;101154;;;16.4;54.9
49583;BME280;36329;48.816;44.624;2023-04-23T13:59:16;101159;;;16.5;53.8
49583;BME280;36329;48.816;44.624;2023-04-23T14:02:18;101154;;;16.4;55.4
49583;BME280;36329;48.816;44.624;2023-04-23T14:05:20;101162;;;16.5;56.4
49583;BME280;36329;48.816;44.624;2023-04-23T14:08:23;101158;;;16.3;57.5
49583;BME280;36329;48.816;44.624;2023-04-23T14:11:25;101161;;;16.3;57.3
49583;BME280;36329;48.816;44.624;2023-04-23T14:14:27;101164;;;16.3;57.9
49583;BME280;36329;48.816;44.624;2023-04-23T14:17:31;101165;;;16.4;58.6
49583;BME280;36329;48.816;44.624;2023-04-23T14:20:33;101167;;;16.3;57.6
49583;BME280;36329;48.816;44.624;2023-04-23T14:23:43;101158;;;16.3;58.8
49583;BME280;36329;48.816;44.624;2023-04-23T14:26:46;101162;;;16.2;57.4
49583;BME280;36329;48.816;44.624;2023-04-23T14:29:51;101163;;;16.3;57
49583;BME280;36329;48.816;44.624;2023-04-23T14:32:58;101163;;;16.3;57.2
49583;BME280;36329;48.816;44.624;2023-04-23T14:36:00;101167;;;16.2;57.8
49583;BME280;36329;48.816;44.624;2023-04-23T14:39:03;101168;;;16.2;58.1
49583;BME280;36329;48.816;44.624;2023-04-23T14:42:06;101174;;;16.1;58
49583;BME280;36329;48.816;44.624;2023-04-23T14:45:08;101166;;;16.1;57.8
49583;BME280;36329;48.816;44.624;2023-04-23T14:48:11;101171;;;15.9;57.2
49583;BME280;36329;48.816;44.624;2023-04-23T14:51:13;101174;;;15.8;57.4
49583;BME280;36329;48.816;44.624;2023-04-23T14:54:15;101170;;;15.8;57.6
49583;BME280;36329;48.816;44.624;2023-04-23T14:57:17;101181;;;15.6;56.8
49583;BME280;36329;48.816;44.624;2023-04-23T15:00:19;101179;;;15.7;57.2
49583;BME280;36329;48.816;44.624;2023-04-23T15:03:21;101182;;;15.6;56.8
49583;BME280;36329;48.816;44.624;2023-04-23T15:06:23;101178;;;15.6;57.2
49583;BME280;36329;48.816;44.624;2023-04-23T15:09:25;101174;;;15.6;56.7
49583;BME280;36329;48.816;44.624;2023-04-23T15:12:40;101177;;;15.5;57.3
49583;BME280;36329;48.816;44.624;2023-04-23T15:15:48;101176;;;15.4;58.2
49583;BME280;36329;48.816;44.624;2023-04-23T15:18:51;101180;;;15.4;58.8
49583;BME280;36329;48.816;44.624;2023-04-23T15:21:53;101178;;;15.2;59.8
49583;BME280;36329;48.816;44.624;2023-04-23T15:24:55;101184;;;15.2;60
49583;BME280;36329;48.816;44.624;2023-04-23T15:27:57;101179;;;15.2;59.7
49583;BME280;36329;48.816;44.624;2023-04-23T15:31:00;101183;;;15.3;59.9
49583;BME280;36329;48.816;44.624;2023-04-23T15:34:02;101186;;;15.3;59.8
49583;BME280;36329;48.816;44.624;2023-04-23T15:37:05;101189;;;15.2;59
49583;BME280;36329;48.816;44.624;2023-04-23T15:40:08;101195;;;15.2;58.6
49583;BME280;36329;48.816;44.624;2023-04-23T15:43:12;101197;;;15.1;59.2
49583;BME280;36329;48.816;44.624;2023-04-23T15:46:14;101200;;;15.1;59.8
49583;BME280;36329;48.816;44.624;2023-04-23T15:49:16;101207;;;15;60
49583;BME280;36329;48.816;44.624;2023-04-23T15:52:18;101213;;;15;59.9
49583;BME280;36329;48.816;44.624;2023-04-23T15:55:21;101216;;;14.9;60.3
49583;BME280;36329;48.816;44.624;2023-04-23T15:58:23;101217;;;14.8;60.1
49583;BME280;36329;48.816;44.624;2023-04-23T16:01:25;101211;;;14.9;60.5
49583;BME280;36329;48.816;44.624;2023-04-23T16:04:27;101217;;;14.9;60.7
49583;BME280;36329;48.816;44.624;2023-04-23T16:07:29;101217;;;15;61.2
49583;BME280;36329;48.816;44.624;2023-04-23T16:10:32;101224;;;15.1;61
49583;BME280;36329;48.816;44.624;2023-04-23T16:13:34;101224;;;15;61.6
49583;BME280;36329;48.816;44.624;2023-04-23T16:16:36;101235;;;15.1;60.9
49583;BME280;36329;48.816;44.624;2023-04-23T16:19:39;101235;;;14.9;60.3
49583;BME280;36329;48.816;44.624;2023-04-23T16:22:41;101242;;;14.7;61.2
49583;BME280;36329;48.816;44.624;2023-04-23T16:25:43;101246;;;14.6;61.7
49583;BME280;36329;48.816;44.624;2023-04-23T16:28:45;101252;;;14.7;61.6
49583;BME280;36329;48.816;44.624;2023-04-23T16:31:47;101250;;;14.8;61.4
49583;BME280;36329;48.816;44.624;2023-04-23T16:34:50;101251;;;14.9;61.4
49583;BME280;36329;48.816;44.624;2023-04-23T16:37:52;101267;;;14.8;61.7
49583;BME280;36329;48.816;44.624;2023-04-23T16:40:54;101275;;;14.9;62
49583;BME280;36329;48.816;44.624;2023-04-23T16:43:56;101271;;;14.8;62.1
49583;BME280;36329;48.816;44.624;2023-04-23T16:46:58;101278;;;14.8;63.7
49583;BME280;36329;48.816;44.624;2023-04-23T16:50:00;101280;;;14.9;66.4
49583;BME280;36329;48.816;44.624;2023-04-23T16:53:06;101284;;;14.8;67.2
49583;BME280;36329;48.816;44.624;2023-04-23T16:56:09;101285;;;14.8;68
49583;BME280;36329;48.816;44.624;2023-04-23T16:59:11;101296;;;14.9;68.7
49583;BME280;36329;48.816;44.624;2023-04-23T17:02:13;101292;;;14.8;68.6
49583;BME280;36329;48.816;44.624;2023-04-23T17:05:15;101300;;;14.8;69.4